sensor_id;sensor_type;location;lat;lon;timestamp;pressure;altitude;pressure_sealevel;temperature;humidity
14343;BME280;7255;53.596;9.960;2023-02-26T00:01:15;101218.81;;;-1.35;nan
14343;BME280;7255;53.596;9.960;2023-02-26T00:03:42;101203.78;;;-1.44;nan
14343;BME280;7255;53.596;9.960;2023-02-26T00:06:08;101227.63;;;-1.56;nan
14343;BME280;7255;53.596;9.960;2023-02-26T00:08:36;101232.38;;;-1.40;nan
14343;BME280;7255;53.596;9.960;2023-02-26T00:11:05;101236.28;;;-1.34;nan
14343;BME280;7255;53.596;9.960;2023-02-26T00:13:32;101297.59;;;-1.32;nan
14343;BME280;7255;53.596;9.960;2023-02-26T00:16:00;101246.31;;;-1.28;nan
14343;BME280;7255;53.596;9.960;2023-02-26T00:18:27;101248.53;;;-1.23;nan
14343;BME280;7255;53.596;9.960;2023-02-26T00:20:54;101247.44;;;-1.21;nan
14343;BME280;7255;53.596;9.960;2023-02-26T00:23:21;101252.06;;;-1.44;nan
14343;BME280;7255;53.596;9.960;2023-02-26T00:25:49;101258.78;;;-1.30;nan
14343;BME280;7255;53.596;9.960;2023-02-26T00:28:16;101252.62;;;-1.40;nan
14343;BME280;7255;53.596;9.960;2023-02-26T00:30:43;101271.25;;;-1.32;nan
14343;BME280;7255;53.596;9.960;2023-02-26T00:33:10;101311.22;;;-1.37;nan
14343;BME280;7255;53.596;9.960;2023-02-26T00:35:37;101279.00;;;-1.40;nan
14343;BME280;7255;53.596;9.960;2023-02-26T00:38:04;101274.03;;;-1.33;nan
14343;BME280;7255;53.596;9.960;2023-02-26T00:40:38;101307.31;;;-1.42;nan
14343;BME280;7255;53.596;9.960;2023-02-26T00:43:11;101277.87;;;-1.38;nan
14343;BME280;7255;53.596;9.960;2023-02-26T00:45:40;101287.34;;;-1.35;nan
14343;BME280;7255;53.596;9.960;2023-02-26T00:48:22;101282.59;;;-1.41;nan
14343;BME280;7255;53.596;9.960;2023-02-26T00:50:58;101246.47;;;-1.50;nan
14343;BME280;7255;53.596;9.960;2023-02-26T00:53:27;101310.31;;;-1.47;nan
14343;BME280;7255;53.596;9.960;2023-02-26T00:55:56;101293.12;;;-1.41;nan
14343;BME280;7255;53.596;9.960;2023-02-26T00:58:24;101306.72;;;-1.46;nan
14343;BME280;7255;53.596;9.960;2023-02-26T01:00:50;101306.47;;;-1.43;nan
14343;BME280;7255;53.596;9.960;2023-02-26T01:03:17;101311.69;;;-1.52;nan
14343;BME280;7255;53.596;9.960;2023-02-26T01:05:44;101309.44;;;-1.57;nan
14343;BME280;7255;53.596;9.960;2023-02-26T01:08:14;101319.00;;;-1.35;nan
14343;BME280;7255;53.596;9.960;2023-02-26T01:10:45;101354.88;;;-1.13;nan
14343;BME280;7255;53.596;9.960;2023-02-26T01:13:11;101372.13;;;-0.99;nan
14343;BME280;7255;53.596;9.960;2023-02-26T01:15:45;101340.19;;;-1.06;nan
14343;BME280;7255;53.596;9.960;2023-02-26T01:18:15;101345.25;;;-0.93;nan
14343;BME280;7255;53.596;9.960;2023-02-26T01:20:47;101371.91;;;-0.86;nan
14343;BME280;7255;53.596;9.960;2023-02-26T01:23:16;101354.41;;;-0.87;nan
14343;BME280;7255;53.596;9.960;2023-02-26T01:25:48;101361.91;;;-0.83;nan
14343;BME280;7255;53.596;9.960;2023-02-26T01:28:15;101369.47;;;-0.68;nan
14343;BME280;7255;53.596;9.960;2023-02-26T01:30:43;101374.41;;;-0.85;nan
14343;BME280;7255;53.596;9.960;2023-02-26T01:33:16;101367.75;;;-0.79;nan
14343;BME280;7255;53.596;9.960;2023-02-26T01:35:47;101376.09;;;-0.84;nan
14343;BME280;7255;53.596;9.960;2023-02-26T01:38:19;101362.22;;;-0.86;nan
14343;BME280;7255;53.596;9.960;2023-02-26T01:41:11;101373.34;;;-0.72;nan
14343;BME280;7255;53.596;9.960;2023-02-26T01:43:48;101376.69;;;-0.70;nan
14343;BME280;7255;53.596;9.960;2023-02-26T01:46:22;101373.34;;;-0.72;nan
14343;BME280;7255;53.596;9.960;2023-02-26T01:48:52;101380.31;;;-0.71;nan
14343;BME280;7255;53.596;9.960;2023-02-26T01:51:41;101369.69;;;-0.91;nan
14343;BME280;7255;53.596;9.960;2023-02-26T01:54:08;101371.88;;;-0.96;nan
14343;BME280;7255;53.596;9.960;2023-02-26T01:56:34;101376.34;;;-0.87;nan
14343;BME280;7255;53.596;9.960;2023-02-26T01:59:01;101378.28;;;-0.89;nan
14343;BME280;7255;53.596;9.960;2023-02-26T02:01:31;101382.19;;;-0.93;nan
14343;BME280;7255;53.596;9.960;2023-02-26T02:03:58;101379.87;;;-1.17;nan
14343;BME280;7255;53.596;9.960;2023-02-26T02:06:26;101379.00;;;-1.18;nan
14343;BME280;7255;53.596;9.960;2023-02-26T02:08:56;101387.62;;;-1.16;nan
14343;BME280;7255;53.596;9.960;2023-02-26T02:11:22;101383.22;;;-1.05;nan
14343;BME280;7255;53.596;9.960;2023-02-26T02:14:00;101388.47;;;-1.15;nan
14343;BME280;7255;53.596;9.960;2023-02-26T02:16:35;101392.06;;;-1.16;nan
14343;BME280;7255;53.596;9.960;2023-02-26T02:19:17;101390.34;;;-1.27;nan
14343;BME280;7255;53.596;9.960;2023-02-26T02:21:56;101397.88;;;-1.22;nan
14343;BME280;7255;53.596;9.960;2023-02-26T02:24:34;101398.59;;;-1.41;nan
14343;BME280;7255;53.596;9.960;2023-02-26T02:27:09;101402.22;;;-1.42;nan
14343;BME280;7255;53.596;9.960;2023-02-26T02:30:06;101386.63;;;-1.45;nan
14343;BME280;7255;53.596;9.960;2023-02-26T02:32:43;101381.31;;;-1.55;nan
14343;BME280;7255;53.596;9.960;2023-02-26T02:35:14;101401.06;;;-1.49;nan
14343;BME280;7255;53.596;9.960;2023-02-26T02:37:47;101394.41;;;-1.44;nan
14343;BME280;7255;53.596;9.960;2023-02-26T02:40:19;101400.81;;;-1.46;nan
14343;BME280;7255;53.596;9.960;2023-02-26T02:42:51;101408.75;;;-1.58;nan
14343;BME280;7255;53.596;9.960;2023-02-26T02:45:24;101415.38;;;-1.63;nan
14343;BME280;7255;53.596;9.960;2023-02-26T02:47:55;101411.72;;;-1.72;nan
14343;BME280;7255;53.596;9.960;2023-02-26T02:50:26;101407.88;;;-1.68;nan
14343;BME280;7255;53.596;9.960;2023-02-26T02:52:56;101419.25;;;-1.67;nan
14343;BME280;7255;53.596;9.960;2023-02-26T02:55:27;101410.63;;;-1.69;nan
14343;BME280;7255;53.596;9.960;2023-02-26T02:57:59;101427.25;;;-1.69;nan
14343;BME280;7255;53.596;9.960;2023-02-26T03:00:29;101418.66;;;-1.71;nan
14343;BME280;7255;53.596;9.960;2023-02-26T03:03:01;101416.31;;;-1.85;nan
14343;BME280;7255;53.596;9.960;2023-02-26T03:05:30;101425.97;;;-1.96;nan
14343;BME280;7255;53.596;9.960;2023-02-26T03:07:59;101431.06;;;-1.83;nan
14343;BME280;7255;53.596;9.960;2023-02-26T03:10:27;101431.62;;;-1.79;nan
14343;BME280;7255;53.596;9.960;2023-02-26T03:12:53;101382.78;;;-1.83;nan
14343;BME280;7255;53.596;9.960;2023-02-26T03:15:30;101444.69;;;-1.78;nan
14343;BME280;7255;53.596;9.960;2023-02-26T03:18:05;101442.44;;;-1.82;nan
14343;BME280;7255;53.596;9.960;2023-02-26T03:20:38;101445.78;;;-1.80;nan
14343;BME280;7255;53.596;9.960;2023-02-26T03:23:13;101439.66;;;-1.81;nan
14343;BME280;7255;53.596;9.960;2023-02-26T03:25:47;101441.25;;;-1.89;nan
14343;BME280;7255;53.596;9.960;2023-02-26T03:28:19;101458.47;;;-1.85;nan
14343;BME280;7255;53.596;9.960;2023-02-26T03:30:54;101433.00;;;-1.85;nan
14343;BME280;7255;53.596;9.960;2023-02-26T03:33:27;101452.62;;;-1.89;nan
14343;BME280;7255;53.596;9.960;2023-02-26T03:36:01;101455.97;;;-1.87;nan
14343;BME280;7255;53.596;9.960;2023-02-26T03:38:34;101452.31;;;-1.96;nan
14343;BME280;7255;53.596;9.960;2023-02-26T03:41:05;101460.41;;;-1.87;nan
14343;BME280;7255;53.596;9.960;2023-02-26T03:43:37;101430.53;;;-2.09;nan
14343;BME280;7255;53.596;9.960;2023-02-26T03:46:08;101464.78;;;-1.98;nan
14343;BME280;7255;53.596;9.960;2023-02-26T03:48:38;101429.78;;;-2.00;nan
14343;BME280;7255;53.596;9.960;2023-02-26T03:51:07;101476.38;;;-2.00;nan
14343;BME280;7255;53.596;9.960;2023-02-26T03:53:41;101470.50;;;-2.04;nan
14343;BME280;7255;53.596;9.960;2023-02-26T03:56:12;101476.28;;;-2.10;nan
14343;BME280;7255;53.596;9.960;2023-02-26T03:58:40;101481.56;;;-2.10;nan
14343;BME280;7255;53.596;9.960;2023-02-26T04:01:11;101480.72;;;-2.10;nan
14343;BME280;7255;53.596;9.960;2023-02-26T04:03:44;101478.94;;;-2.21;nan
14343;BME280;7255;53.596;9.960;2023-02-26T04:06:11;101494.25;;;-2.15;nan
14343;BME280;7255;53.596;9.960;2023-02-26T04:08:38;101510.53;;;-2.21;nan
14343;BME280;7255;53.596;9.960;2023-02-26T04:11:07;101494.97;;;-2.24;nan
14343;BME280;7255;53.596;9.960;2023-02-26T04:13:35;101492.69;;;-2.29;nan
14343;BME280;7255;53.596;9.960;2023-02-26T04:16:02;101494.00;;;-2.12;nan
14343;BME280;7255;53.596;9.960;2023-02-26T04:18:29;101529.19;;;-2.13;nan
14343;BME280;7255;53.596;9.960;2023-02-26T04:20:57;101510.53;;;-2.21;nan
14343;BME280;7255;53.596;9.960;2023-02-26T04:23:23;101519.75;;;-2.16;nan
14343;BME280;7255;53.596;9.960;2023-02-26T04:25:49;101502.16;;;-2.26;nan
14343;BME280;7255;53.596;9.960;2023-02-26T04:28:16;101518.47;;;-2.33;nan
14343;BME280;7255;53.596;9.960;2023-02-26T04:30:42;101510.31;;;-2.41;nan
14343;BME280;7255;53.596;9.960;2023-02-26T04:33:08;101511.87;;;-2.27;nan
14343;BME280;7255;53.596;9.960;2023-02-26T04:35:35;101519.53;;;-2.35;nan
14343;BME280;7255;53.596;9.960;2023-02-26T04:38:02;101522.28;;;-2.37;nan
14343;BME280;7255;53.596;9.960;2023-02-26T04:40:29;101524.56;;;-2.32;nan
14343;BME280;7255;53.596;9.960;2023-02-26T04:42:56;101521.06;;;-2.44;nan
14343;BME280;7255;53.596;9.960;2023-02-26T04:45:22;101517.28;;;-2.40;nan
14343;BME280;7255;53.596;9.960;2023-02-26T04:47:48;101530.06;;;-2.35;nan
14343;BME280;7255;53.596;9.960;2023-02-26T04:50:15;101533.53;;;-2.23;nan
14343;BME280;7255;53.596;9.960;2023-02-26T04:52:41;101539.03;;;-2.26;nan
14343;BME280;7255;53.596;9.960;2023-02-26T04:55:09;101536.16;;;-2.35;nan
14343;BME280;7255;53.596;9.960;2023-02-26T04:57:35;101539.25;;;-2.29;nan
14343;BME280;7255;53.596;9.960;2023-02-26T05:00:03;101552.66;;;-2.21;nan
14343;BME280;7255;53.596;9.960;2023-02-26T05:02:32;101556.97;;;-2.32;nan
14343;BME280;7255;53.596;9.960;2023-02-26T05:04:58;101556.28;;;-2.45;nan
14343;BME280;7255;53.596;9.960;2023-02-26T05:07:24;101526.00;;;-2.50;nan
14343;BME280;7255;53.596;9.960;2023-02-26T05:09:51;101559.37;;;-2.40;nan
14343;BME280;7255;53.596;9.960;2023-02-26T05:12:18;101524.91;;;-2.48;nan
14343;BME280;7255;53.596;9.960;2023-02-26T05:14:45;101570.03;;;-2.30;nan
14343;BME280;7255;53.596;9.960;2023-02-26T05:17:11;101539.88;;;-2.48;nan
14343;BME280;7255;53.596;9.960;2023-02-26T05:19:37;101571.12;;;-2.33;nan
14343;BME280;7255;53.596;9.960;2023-02-26T05:22:04;101581.97;;;-2.48;nan
14343;BME280;7255;53.596;9.960;2023-02-26T05:24:30;101581.75;;;-2.45;nan
14343;BME280;7255;53.596;9.960;2023-02-26T05:26:57;101544.06;;;-2.46;nan
14343;BME280;7255;53.596;9.960;2023-02-26T05:29:25;101577.31;;;-2.45;nan
14343;BME280;7255;53.596;9.960;2023-02-26T05:31:51;101573.38;;;-2.50;nan
14343;BME280;7255;53.596;9.960;2023-02-26T05:34:17;101581.59;;;-2.55;nan
14343;BME280;7255;53.596;9.960;2023-02-26T05:36:43;101592.25;;;-2.68;nan
14343;BME280;7255;53.596;9.960;2023-02-26T05:39:10;101584.34;;;-2.57;nan
14343;BME280;7255;53.596;9.960;2023-02-26T05:41:36;101589.63;;;-2.57;nan
14343;BME280;7255;53.596;9.960;2023-02-26T05:44:03;101598.47;;;-2.58;nan
14343;BME280;7255;53.596;9.960;2023-02-26T05:46:30;101607.09;;;-2.56;nan
14343;BME280;7255;53.596;9.960;2023-02-26T05:48:57;101582.31;;;-2.64;nan
14343;BME280;7255;53.596;9.960;2023-02-26T05:51:23;101520.59;;;-2.83;nan
14343;BME280;7255;53.596;9.960;2023-02-26T05:53:49;101603.09;;;-2.84;nan
14343;BME280;7255;53.596;9.960;2023-02-26T05:56:16;101687.72;;;-2.90;nan
14343;BME280;7255;53.596;9.960;2023-02-26T05:58:42;101613.97;;;-2.77;nan
14343;BME280;7255;53.596;9.960;2023-02-26T06:01:08;101627.63;;;-2.72;nan
14343;BME280;7255;53.596;9.960;2023-02-26T06:03:36;101627.25;;;-2.79;nan
14343;BME280;7255;53.596;9.960;2023-02-26T06:06:04;101625.59;;;-2.80;nan
14343;BME280;7255;53.596;9.960;2023-02-26T06:08:30;101623.06;;;-2.81;nan
14343;BME280;7255;53.596;9.960;2023-02-26T06:10:57;101632.28;;;-2.76;nan
14343;BME280;7255;53.596;9.960;2023-02-26T06:13:23;101643.81;;;-2.65;nan
14343;BME280;7255;53.596;9.960;2023-02-26T06:15:49;101640.44;;;-2.67;nan
14343;BME280;7255;53.596;9.960;2023-02-26T06:18:16;101645.69;;;-2.67;nan
14343;BME280;7255;53.596;9.960;2023-02-26T06:20:44;101646.03;;;-2.83;nan
14343;BME280;7255;53.596;9.960;2023-02-26T06:23:10;101649.16;;;-2.78;nan
14343;BME280;7255;53.596;9.960;2023-02-26T06:25:39;101658.13;;;-2.69;nan
14343;BME280;7255;53.596;9.960;2023-02-26T06:28:05;101655.03;;;-2.75;nan
14343;BME280;7255;53.596;9.960;2023-02-26T06:30:32;101655.09;;;-2.87;nan
14343;BME280;7255;53.596;9.960;2023-02-26T06:32:58;101664.47;;;-2.72;nan
14343;BME280;7255;53.596;9.960;2023-02-26T06:35:25;101667.69;;;-2.80;nan
14343;BME280;7255;53.596;9.960;2023-02-26T06:37:55;101676.69;;;-2.71;nan
14343;BME280;7255;53.596;9.960;2023-02-26T06:40:21;101675.00;;;-2.72;nan
14343;BME280;7255;53.596;9.960;2023-02-26T06:42:48;101682.91;;;-2.61;nan
14343;BME280;7255;53.596;9.960;2023-02-26T06:45:14;101666.06;;;-2.58;nan
14343;BME280;7255;53.596;9.960;2023-02-26T06:47:41;101691.09;;;-2.53;nan
14343;BME280;7255;53.596;9.960;2023-02-26T06:50:08;101708.94;;;-2.45;nan
14343;BME280;7255;53.596;9.960;2023-02-26T06:52:35;101698.41;;;-2.45;nan
14343;BME280;7255;53.596;9.960;2023-02-26T06:55:03;101711.37;;;-2.30;nan
14343;BME280;7255;53.596;9.960;2023-02-26T06:57:30;101713.62;;;-2.26;nan
14343;BME280;7255;53.596;9.960;2023-02-26T06:59:56;101704.22;;;-2.06;nan
14343;BME280;7255;53.596;9.960;2023-02-26T07:02:22;101729.38;;;-1.90;nan
14343;BME280;7255;53.596;9.960;2023-02-26T07:04:49;101723.12;;;-1.78;nan
14343;BME280;7255;53.596;9.960;2023-02-26T07:07:15;101745.78;;;-1.64;nan
14343;BME280;7255;53.596;9.960;2023-02-26T07:09:41;101754.41;;;-1.62;nan
14343;BME280;7255;53.596;9.960;2023-02-26T07:12:09;101747.94;;;-1.47;nan
14343;BME280;7255;53.596;9.960;2023-02-26T07:14:36;101772.50;;;-1.35;nan
14343;BME280;7255;53.596;9.960;2023-02-26T07:17:03;101772.25;;;-1.32;nan
14343;BME280;7255;53.596;9.960;2023-02-26T07:19:29;101752.84;;;-1.31;nan
14343;BME280;7255;53.596;9.960;2023-02-26T07:21:56;101768.28;;;-1.38;nan
14343;BME280;7255;53.596;9.960;2023-02-26T07:24:22;101788.94;;;-1.31;nan
14343;BME280;7255;53.596;9.960;2023-02-26T07:26:49;101778.38;;;-1.31;nan
14343;BME280;7255;53.596;9.960;2023-02-26T07:29:17;101774.91;;;-1.43;nan
14343;BME280;7255;53.596;9.960;2023-02-26T07:31:43;101770.34;;;-1.52;nan
14343;BME280;7255;53.596;9.960;2023-02-26T07:34:09;101770.00;;;-1.59;nan
14343;BME280;7255;53.596;9.960;2023-02-26T07:36:36;101780.16;;;-1.66;nan
14343;BME280;7255;53.596;9.960;2023-02-26T07:39:02;101785.94;;;-1.49;nan
14343;BME280;7255;53.596;9.960;2023-02-26T07:41:28;101793.69;;;-1.70;nan
14343;BME280;7255;53.596;9.960;2023-02-26T07:43:55;101780.28;;;-1.56;nan
14343;BME280;7255;53.596;9.960;2023-02-26T07:46:22;101774.06;;;-1.66;nan
14343;BME280;7255;53.596;9.960;2023-02-26T07:48:48;101785.09;;;-1.50;nan
14343;BME280;7255;53.596;9.960;2023-02-26T07:51:15;101785.94;;;-1.49;nan
14343;BME280;7255;53.596;9.960;2023-02-26T07:53:41;101793.09;;;-1.29;nan
14343;BME280;7255;53.596;9.960;2023-02-26T07:56:07;101812.87;;;-1.23;nan
14343;BME280;7255;53.596;9.960;2023-02-26T07:58:34;101787.09;;;-1.20;nan
14343;BME280;7255;53.596;9.960;2023-02-26T08:01:00;101818.03;;;-1.10;nan
14343;BME280;7255;53.596;9.960;2023-02-26T08:03:28;101809.84;;;-0.96;nan
14343;BME280;7255;53.596;9.960;2023-02-26T08:05:56;101836.84;;;-0.92;nan
14343;BME280;7255;53.596;9.960;2023-02-26T08:08:24;101838.84;;;-0.85;nan
14343;BME280;7255;53.596;9.960;2023-02-26T08:10:50;101830.59;;;-0.80;nan
14343;BME280;7255;53.596;9.960;2023-02-26T08:13:18;101852.62;;;-0.70;nan
14343;BME280;7255;53.596;9.960;2023-02-26T08:15:44;101846.50;;;-0.70;nan
14343;BME280;7255;53.596;9.960;2023-02-26T08:18:11;101853.56;;;-0.60;nan
14343;BME280;7255;53.596;9.960;2023-02-26T08:20:39;101862.56;;;-0.51;nan
14343;BME280;7255;53.596;9.960;2023-02-26T08:23:05;101876.22;;;-0.46;nan
14343;BME280;7255;53.596;9.960;2023-02-26T08:25:32;101870.94;;;-0.46;nan
14343;BME280;7255;53.596;9.960;2023-02-26T08:27:58;101878.25;;;-0.38;nan
14343;BME280;7255;53.596;9.960;2023-02-26T08:30:25;101887.47;;;-0.32;nan
14343;BME280;7255;53.596;9.960;2023-02-26T08:32:52;101891.25;;;-0.14;nan
14343;BME280;7255;53.596;9.960;2023-02-26T08:35:18;101902.66;;;-0.13;nan
14343;BME280;7255;53.596;9.960;2023-02-26T08:37:46;101911.28;;;-0.11;nan
14343;BME280;7255;53.596;9.960;2023-02-26T08:40:12;101916.91;;;-0.05;nan
14343;BME280;7255;53.596;9.960;2023-02-26T08:42:39;101922.19;;;-0.05;nan
14343;BME280;7255;53.596;9.960;2023-02-26T08:45:06;101930.84;;;-0.03;nan
14343;BME280;7255;53.596;9.960;2023-02-26T08:47:33;101926.97;;;0.02;nan
14343;BME280;7255;53.596;9.960;2023-02-26T08:49:59;101925.78;;;-0.06;nan
14343;BME280;7255;53.596;9.960;2023-02-26T08:52:27;101936.78;;;0.11;nan
14343;BME280;7255;53.596;9.960;2023-02-26T08:54:54;101948.28;;;0.21;nan
14343;BME280;7255;53.596;9.960;2023-02-26T08:57:21;101956.69;;;0.26;nan
14343;BME280;7255;53.596;9.960;2023-02-26T08:59:47;101963.38;;;0.30;nan
14343;BME280;7255;53.596;9.960;2023-02-26T09:02:13;101966.25;;;0.38;nan
14343;BME280;7255;53.596;9.960;2023-02-26T09:04:40;101964.56;;;0.37;nan
14343;BME280;7255;53.596;9.960;2023-02-26T09:07:06;101953.75;;;0.41;nan
14343;BME280;7255;53.596;9.960;2023-02-26T09:09:32;101955.50;;;0.51;nan
14343;BME280;7255;53.596;9.960;2023-02-26T09:12:00;101987.28;;;0.61;nan
14343;BME280;7255;53.596;9.960;2023-02-26T09:14:27;101998.00;;;0.81;nan
14343;BME280;7255;53.596;9.960;2023-02-26T09:16:53;101994.12;;;0.85;nan
14343;BME280;7255;53.596;9.960;2023-02-26T09:19:19;101997.72;;;0.84;nan
14343;BME280;7255;53.596;9.960;2023-02-26T09:21:46;102003.34;;;0.90;nan
14343;BME280;7255;53.596;9.960;2023-02-26T09:24:12;102005.09;;;1.01;nan
14343;BME280;7255;53.596;9.960;2023-02-26T09:26:38;102007.13;;;1.19;nan
14343;BME280;7255;53.596;9.960;2023-02-26T09:29:06;102026.47;;;1.40;nan
14343;BME280;7255;53.596;9.960;2023-02-26T09:31:32;102028.19;;;1.51;nan
14343;BME280;7255;53.596;9.960;2023-02-26T09:33:59;102036.63;;;1.66;nan
14343;BME280;7255;53.596;9.960;2023-02-26T09:36:25;102039.44;;;1.74;nan
14343;BME280;7255;53.596;9.960;2023-02-26T09:38:51;102054.25;;;1.86;nan
14343;BME280;7255;53.596;9.960;2023-02-26T09:41:21;102055.62;;;1.81;nan
14343;BME280;7255;53.596;9.960;2023-02-26T09:44:01;102048.38;;;1.83;nan
14343;BME280;7255;53.596;9.960;2023-02-26T09:46:38;102042.50;;;1.79;nan
14343;BME280;7255;53.596;9.960;2023-02-26T09:49:16;102051.44;;;1.78;nan
14343;BME280;7255;53.596;9.960;2023-02-26T09:51:46;102055.09;;;1.87;nan
14343;BME280;7255;53.596;9.960;2023-02-26T09:54:17;102051.78;;;1.95;nan
14343;BME280;7255;53.596;9.960;2023-02-26T09:56:45;102063.78;;;2.08;nan
14343;BME280;7255;53.596;9.960;2023-02-26T09:59:12;102063.78;;;2.08;nan
14343;BME280;7255;53.596;9.960;2023-02-26T10:01:45;102074.13;;;2.02;nan
14343;BME280;7255;53.596;9.960;2023-02-26T10:04:21;102057.66;;;1.98;nan
14343;BME280;7255;53.596;9.960;2023-02-26T10:07:11;102074.69;;;2.05;nan
14343;BME280;7255;53.596;9.960;2023-02-26T10:09:52;102086.72;;;2.19;nan
14343;BME280;7255;53.596;9.960;2023-02-26T10:12:23;102082.84;;;2.33;nan
14343;BME280;7255;53.596;9.960;2023-02-26T10:14:54;102082.28;;;2.29;nan
14343;BME280;7255;53.596;9.960;2023-02-26T10:17:29;102085.06;;;2.38;nan
14343;BME280;7255;53.596;9.960;2023-02-26T10:20:00;102089.84;;;2.44;nan
14343;BME280;7255;53.596;9.960;2023-02-26T10:22:32;102102.97;;;2.55;nan
14343;BME280;7255;53.596;9.960;2023-02-26T10:25:05;102103.81;;;2.65;nan
14343;BME280;7255;53.596;9.960;2023-02-26T10:27:41;102109.66;;;2.98;nan
14343;BME280;7255;53.596;9.960;2023-02-26T10:30:13;102127.53;;;3.25;nan
14343;BME280;7255;53.596;9.960;2023-02-26T10:32:51;102137.31;;;3.35;nan
14343;BME280;7255;53.596;9.960;2023-02-26T10:35:22;102144.56;;;3.42;nan
14343;BME280;7255;53.596;9.960;2023-02-26T10:37:55;102127.28;;;3.28;nan
14343;BME280;7255;53.596;9.960;2023-02-26T10:40:27;102130.63;;;3.21;nan
14343;BME280;7255;53.596;9.960;2023-02-26T10:42:57;102135.94;;;3.31;nan
14343;BME280;7255;53.596;9.960;2023-02-26T10:45:32;102143.19;;;3.48;nan
14343;BME280;7255;53.596;9.960;2023-02-26T10:48:10;102140.66;;;3.46;nan
14343;BME280;7255;53.596;9.960;2023-02-26T10:50:42;102159.63;;;3.71;nan
14343;BME280;7255;53.596;9.960;2023-02-26T10:53:11;102181.38;;;3.94;nan
14343;BME280;7255;53.596;9.960;2023-02-26T10:55:40;102186.25;;;4.36;nan
14343;BME280;7255;53.596;9.960;2023-02-26T10:58:11;102179.69;;;4.03;nan
14343;BME280;7255;53.596;9.960;2023-02-26T11:00:39;102169.16;;;3.74;nan
14343;BME280;7255;53.596;9.960;2023-02-26T11:03:14;102150.44;;;3.56;nan
14343;BME280;7255;53.596;9.960;2023-02-26T11:05:41;102172.25;;;3.59;nan
14343;BME280;7255;53.596;9.960;2023-02-26T11:08:25;102177.28;;;3.53;nan
14343;BME280;7255;53.596;9.960;2023-02-26T11:10:54;102169.72;;;3.58;nan
14343;BME280;7255;53.596;9.960;2023-02-26T11:13:21;102180.06;;;3.71;nan
14343;BME280;7255;53.596;9.960;2023-02-26T11:15:50;102201.97;;;4.30;nan
14343;BME280;7255;53.596;9.960;2023-02-26T11:18:22;102199.97;;;4.41;nan
14343;BME280;7255;53.596;9.960;2023-02-26T11:20:53;102193.22;;;4.37;nan
14343;BME280;7255;53.596;9.960;2023-02-26T11:23:22;102203.19;;;4.63;nan
14343;BME280;7255;53.596;9.960;2023-02-26T11:25:53;102216.25;;;4.84;nan
14343;BME280;7255;53.596;9.960;2023-02-26T11:28:30;102225.63;;;5.06;nan
14343;BME280;7255;53.596;9.960;2023-02-26T11:31:00;102220.75;;;4.84;nan
14343;BME280;7255;53.596;9.960;2023-02-26T11:33:35;102176.63;;;4.53;nan
14343;BME280;7255;53.596;9.960;2023-02-26T11:36:07;102207.56;;;4.27;nan
14343;BME280;7255;53.596;9.960;2023-02-26T11:38:35;102218.72;;;4.40;nan
14343;BME280;7255;53.596;9.960;2023-02-26T11:41:01;102215.38;;;4.38;nan
14343;BME280;7255;53.596;9.960;2023-02-26T11:43:35;102213.09;;;4.43;nan
14343;BME280;7255;53.596;9.960;2023-02-26T11:46:04;102221.19;;;4.51;nan
14343;BME280;7255;53.596;9.960;2023-02-26T11:48:38;102216.34;;;4.65;nan
14343;BME280;7255;53.596;9.960;2023-02-26T11:51:07;102212.56;;;4.39;nan
14343;BME280;7255;53.596;9.960;2023-02-26T11:53:41;102195.47;;;4.42;nan
14343;BME280;7255;53.596;9.960;2023-02-26T11:56:11;102215.78;;;4.05;nan
14343;BME280;7255;53.596;9.960;2023-02-26T11:58:40;102212.44;;;4.03;nan
14343;BME280;7255;53.596;9.960;2023-02-26T12:01:14;102222.84;;;4.52;nan
14343;BME280;7255;53.596;9.960;2023-02-26T12:03:46;102216.75;;;4.42;nan
14343;BME280;7255;53.596;9.960;2023-02-26T12:06:15;102216.28;;;4.19;nan
14343;BME280;7255;53.596;9.960;2023-02-26T12:08:43;102219.84;;;4.37;nan
14343;BME280;7255;53.596;9.960;2023-02-26T12:11:22;102221.53;;;4.38;nan
14343;BME280;7255;53.596;9.960;2023-02-26T12:14:04;102213.19;;;4.23;nan
14343;BME280;7255;53.596;9.960;2023-02-26T12:16:38;102215.06;;;4.41;nan
14343;BME280;7255;53.596;9.960;2023-02-26T12:19:12;102208.28;;;4.56;nan
14343;BME280;7255;53.596;9.960;2023-02-26T12:21:55;102199.59;;;4.54;nan
14343;BME280;7255;53.596;9.960;2023-02-26T12:24:36;102201.44;;;4.72;nan
14343;BME280;7255;53.596;9.960;2023-02-26T12:27:12;102197.09;;;4.53;nan
14343;BME280;7255;53.596;9.960;2023-02-26T12:29:50;102205.16;;;4.61;nan
14343;BME280;7255;53.596;9.960;2023-02-26T12:32:33;102202.97;;;4.56;nan
14343;BME280;7255;53.596;9.960;2023-02-26T12:35:32;102204.31;;;4.60;nan
14343;BME280;7255;53.596;9.960;2023-02-26T12:38:18;102200.00;;;4.77;nan
14343;BME280;7255;53.596;9.960;2023-02-26T12:41:14;102195.38;;;4.97;nan
14343;BME280;7255;53.596;9.960;2023-02-26T12:43:46;102193.03;;;4.76;nan
14343;BME280;7255;53.596;9.960;2023-02-26T12:46:21;102194.69;;;4.77;nan
14343;BME280;7255;53.596;9.960;2023-02-26T12:49:15;102201.91;;;4.85;nan
14343;BME280;7255;53.596;9.960;2023-02-26T12:52:02;102203.72;;;4.67;nan
14343;BME280;7255;53.596;9.960;2023-02-26T12:54:43;102201.19;;;4.65;nan
14343;BME280;7255;53.596;9.960;2023-02-26T12:57:39;102201.75;;;4.69;nan
14343;BME280;7255;53.596;9.960;2023-02-26T13:00:27;102203.44;;;4.70;nan
14343;BME280;7255;53.596;9.960;2023-02-26T13:06:12;102195.22;;;4.81;nan
14343;BME280;7255;53.596;9.960;2023-02-26T13:08:45;102279.84;;;4.87;nan
14343;BME280;7255;53.596;9.960;2023-02-26T13:11:20;102196.53;;;4.49;nan
14343;BME280;7255;53.596;9.960;2023-02-26T13:14:05;102214.50;;;4.93;nan
14343;BME280;7255;53.596;9.960;2023-02-26T13:16:45;102214.72;;;4.99;nan
14343;BME280;7255;53.596;9.960;2023-02-26T13:19:25;102204.50;;;4.77;nan
14343;BME280;7255;53.596;9.960;2023-02-26T13:21:56;102218.38;;;4.98;nan
14343;BME280;7255;53.596;9.960;2023-02-26T13:24:29;102216.31;;;5.10;nan
14343;BME280;7255;53.596;9.960;2023-02-26T13:27:00;102200.78;;;4.88;nan
14343;BME280;7255;53.596;9.960;2023-02-26T13:29:31;102212.03;;;4.81;nan
14343;BME280;7255;53.596;9.960;2023-02-26T13:32:03;102215.63;;;4.90;nan
14343;BME280;7255;53.596;9.960;2023-02-26T13:34:37;102209.53;;;4.80;nan
14343;BME280;7255;53.596;9.960;2023-02-26T13:37:13;102210.72;;;4.68;nan
14343;BME280;7255;53.596;9.960;2023-02-26T13:39:47;102196.13;;;4.72;nan
14343;BME280;7255;53.596;9.960;2023-02-26T13:42:26;102207.84;;;4.79;nan
14343;BME280;7255;53.596;9.960;2023-02-26T13:45:06;102215.03;;;4.96;nan